PAFR METAR and TAF weather

Enter ICAO airport designator
Station Type Date Time Source
PAFR METAR 2022/01/28 00:18 UTC NOAA

PAFR 280018Z AUTO 04004KT 9SM SCT017 OVC055 M05/M06 A2946 RMK AO2 SLP987 PNO $


Station Type Date Time Source
PAFR Decoded METAR 2022/01/28 00:18 UTC NOAA

Ft. Richardson / Bryant U. S. Army Heliport, Ak, AK, United States (PAFR) 61-16N 149-39W 115M
Jan 27, 2022 - 07:18 PM EST / 2022.01.28 0018 UTC
Wind: from the NE (040 degrees) at 5 MPH (4 KT):0
Visibility: 9 mile(s):0
Sky conditions: overcast
Temperature: 23 F (-5 C)
Windchill: 15 F (-9 C):1
Dew Point: 21 F (-6 C)
Relative Humidity: 92%
Pressure (altimeter): 29.46 in. Hg (997 hPa)
ob: PAFR 280018Z AUTO 04004KT 9SM SCT017 OVC055 M05/M06 A2946 RMK AO2 SLP987 PNO
cycle: 0

Station Type Date Time Source
PAFR TAF UTC NOAA

Error!

Example: see airport list